<?xml version="1.0" encoding="UTF-8" standalone="no" ?>
<gpx xmlns="http://www.topografix.com/GPX/1/1" xmlns:xsi="http://www.w3.org/2001/XMLSchema-instance" xsi:schemaLocation="http://www.topografix.com/GPX/1/1 http://www.topografix.com/GPX/1/1/gpx.xsd" version="1.1" creator="VisuGPX - https://www.visugpx.com">
  <metadata>
    <name>Greo Verte</name>
  </metadata>
  <trk>
    <name><![CDATA[Greo Verte_1]]></name>
    <trkseg>
      <trkpt lat="43.83138" lon="6.95165">
        <ele>1405.58</ele>
        <time>2021-01-06T11:59:18Z</time>
      </trkpt>
      <trkpt lat="43.83138" lon="6.95165">
        <ele>1405.58</ele>
        <time>2021-01-06T11:59:19Z</time>
      </trkpt>
      <trkpt lat="43.83136" lon="6.95164">
        <ele>1401.74</ele>
        <time>2021-01-06T11:59:35Z</time>
      </trkpt>
      <trkpt lat="43.83135" lon="6.95164">
        <ele>1407.99</ele>
        <time>2021-01-06T11:59:36Z</time>
      </trkpt>
      <trkpt lat="43.83135" lon="6.95164">
        <ele>1405.1</ele>
        <time>2021-01-06T11:59:37Z</time>
      </trkpt>
      <trkpt lat="43.83136" lon="6.95167">
        <ele>1405.1</ele>
        <time>2021-01-06T12:00:00Z</time>
      </trkpt>
      <trkpt lat="43.83136" lon="6.95165">
        <ele>1404.62</ele>
        <time>2021-01-06T12:00:18Z</time>
      </trkpt>
      <trkpt lat="43.83136" lon="6.95166">
        <ele>1404.62</ele>
        <time>2021-01-06T12:00:42Z</time>
      </trkpt>
      <trkpt lat="43.83138" lon="6.95167">
        <ele>1404.62</ele>
        <time>2021-01-06T12:01:05Z</time>
      </trkpt>
      <trkpt lat="43.83138" lon="6.95203">
        <ele>1403.66</ele>
        <time>2021-01-06T12:01:16Z</time>
      </trkpt>
      <trkpt lat="43.8314" lon="6.95227">
        <ele>1403.66</ele>
        <time>2021-01-06T12:01:22Z</time>
      </trkpt>
      <trkpt lat="43.83142" lon="6.9525">
        <ele>1404.14</ele>
        <time>2021-01-06T12:01:29Z</time>
      </trkpt>
      <trkpt lat="43.83142" lon="6.95254">
        <ele>1404.14</ele>
        <time>2021-01-06T12:01:30Z</time>
      </trkpt>
      <trkpt lat="43.83142" lon="6.9528">
        <ele>1404.14</ele>
        <time>2021-01-06T12:01:38Z</time>
      </trkpt>
      <trkpt lat="43.8314" lon="6.95287">
        <ele>1404.14</ele>
        <time>2021-01-06T12:01:40Z</time>
      </trkpt>
      <trkpt lat="43.83123" lon="6.95322">
        <ele>1404.62</ele>
        <time>2021-01-06T12:01:52Z</time>
      </trkpt>
      <trkpt lat="43.83107" lon="6.95339">
        <ele>1405.1</ele>
        <time>2021-01-06T12:02:00Z</time>
      </trkpt>
      <trkpt lat="43.83097" lon="6.95345">
        <ele>1406.07</ele>
        <time>2021-01-06T12:02:07Z</time>
      </trkpt>
      <trkpt lat="43.83087" lon="6.95345">
        <ele>1407.51</ele>
        <time>2021-01-06T12:02:15Z</time>
      </trkpt>
      <trkpt lat="43.8308" lon="6.95343">
        <ele>1407.03</ele>
        <time>2021-01-06T12:02:20Z</time>
      </trkpt>
      <trkpt lat="43.83069" lon="6.95337">
        <ele>1407.99</ele>
        <time>2021-01-06T12:02:28Z</time>
      </trkpt>
      <trkpt lat="43.83066" lon="6.95335">
        <ele>1408.47</ele>
        <time>2021-01-06T12:02:30Z</time>
      </trkpt>
      <trkpt lat="43.83062" lon="6.95332">
        <ele>1408.47</ele>
        <time>2021-01-06T12:02:33Z</time>
      </trkpt>
      <trkpt lat="43.83042" lon="6.95323">
        <ele>1407.99</ele>
        <time>2021-01-06T12:02:44Z</time>
      </trkpt>
      <trkpt lat="43.8303" lon="6.95315">
        <ele>1407.99</ele>
        <time>2021-01-06T12:02:50Z</time>
      </trkpt>
      <trkpt lat="43.83001" lon="6.95304">
        <ele>1407.99</ele>
        <time>2021-01-06T12:03:02Z</time>
      </trkpt>
      <trkpt lat="43.82985" lon="6.95299">
        <ele>1407.03</ele>
        <time>2021-01-06T12:03:08Z</time>
      </trkpt>
      <trkpt lat="43.82969" lon="6.95291">
        <ele>1407.03</ele>
        <time>2021-01-06T12:03:16Z</time>
      </trkpt>
      <trkpt lat="43.82966" lon="6.95289">
        <ele>1408.47</ele>
        <time>2021-01-06T12:03:18Z</time>
      </trkpt>
      <trkpt lat="43.82963" lon="6.95287">
        <ele>1408.47</ele>
        <time>2021-01-06T12:03:20Z</time>
      </trkpt>
      <trkpt lat="43.82956" lon="6.95283">
        <ele>1408.95</ele>
        <time>2021-01-06T12:03:24Z</time>
      </trkpt>
      <trkpt lat="43.82945" lon="6.9528">
        <ele>1409.91</ele>
        <time>2021-01-06T12:03:33Z</time>
      </trkpt>
      <trkpt lat="43.82936" lon="6.95276">
        <ele>1410.87</ele>
        <time>2021-01-06T12:03:40Z</time>
      </trkpt>
      <trkpt lat="43.82934" lon="6.95275">
        <ele>1411.35</ele>
        <time>2021-01-06T12:03:42Z</time>
      </trkpt>
      <trkpt lat="43.82927" lon="6.95272">
        <ele>1412.79</ele>
        <time>2021-01-06T12:03:48Z</time>
      </trkpt>
      <trkpt lat="43.82915" lon="6.95267">
        <ele>1412.31</ele>
        <time>2021-01-06T12:03:57Z</time>
      </trkpt>
      <trkpt lat="43.82913" lon="6.95266">
        <ele>1412.79</ele>
        <time>2021-01-06T12:03:58Z</time>
      </trkpt>
      <trkpt lat="43.82908" lon="6.95264">
        <ele>1412.79</ele>
        <time>2021-01-06T12:04:02Z</time>
      </trkpt>
      <trkpt lat="43.82891" lon="6.95254">
        <ele>1413.28</ele>
        <time>2021-01-06T12:04:14Z</time>
      </trkpt>
      <trkpt lat="43.82885" lon="6.95251">
        <ele>1413.28</ele>
        <time>2021-01-06T12:04:18Z</time>
      </trkpt>
      <trkpt lat="43.82875" lon="6.95247">
        <ele>1414.24</ele>
        <time>2021-01-06T12:04:25Z</time>
      </trkpt>
      <trkpt lat="43.8287" lon="6.95245">
        <ele>1414.72</ele>
        <time>2021-01-06T12:04:29Z</time>
      </trkpt>
      <trkpt lat="43.82856" lon="6.95242">
        <ele>1415.68</ele>
        <time>2021-01-06T12:04:38Z</time>
      </trkpt>
      <trkpt lat="43.82848" lon="6.95236">
        <ele>1415.68</ele>
        <time>2021-01-06T12:04:45Z</time>
      </trkpt>
      <trkpt lat="43.82841" lon="6.95232">
        <ele>1415.68</ele>
        <time>2021-01-06T12:04:49Z</time>
      </trkpt>
      <trkpt lat="43.82823" lon="6.95225">
        <ele>1416.16</ele>
        <time>2021-01-06T12:04:59Z</time>
      </trkpt>
      <trkpt lat="43.82808" lon="6.95223">
        <ele>1416.64</ele>
        <time>2021-01-06T12:05:08Z</time>
      </trkpt>
      <trkpt lat="43.82791" lon="6.95218">
        <ele>1417.12</ele>
        <time>2021-01-06T12:05:19Z</time>
      </trkpt>
      <trkpt lat="43.82785" lon="6.95214">
        <ele>1417.12</ele>
        <time>2021-01-06T12:05:23Z</time>
      </trkpt>
      <trkpt lat="43.82776" lon="6.95212">
        <ele>1417.6</ele>
        <time>2021-01-06T12:05:28Z</time>
      </trkpt>
      <trkpt lat="43.8276" lon="6.95209">
        <ele>1418.08</ele>
        <time>2021-01-06T12:05:38Z</time>
      </trkpt>
      <trkpt lat="43.82755" lon="6.95207">
        <ele>1419.04</ele>
        <time>2021-01-06T12:05:42Z</time>
      </trkpt>
      <trkpt lat="43.82753" lon="6.95205">
        <ele>1419.52</ele>
        <time>2021-01-06T12:05:45Z</time>
      </trkpt>
      <trkpt lat="43.82747" lon="6.95203">
        <ele>1420</ele>
        <time>2021-01-06T12:05:49Z</time>
      </trkpt>
      <trkpt lat="43.82742" lon="6.952">
        <ele>1420.49</ele>
        <time>2021-01-06T12:05:53Z</time>
      </trkpt>
      <trkpt lat="43.82726" lon="6.95196">
        <ele>1420.97</ele>
        <time>2021-01-06T12:06:03Z</time>
      </trkpt>
      <trkpt lat="43.82714" lon="6.95193">
        <ele>1421.93</ele>
        <time>2021-01-06T12:06:11Z</time>
      </trkpt>
      <trkpt lat="43.8269" lon="6.95195">
        <ele>1423.37</ele>
        <time>2021-01-06T12:06:27Z</time>
      </trkpt>
      <trkpt lat="43.82679" lon="6.95196">
        <ele>1423.37</ele>
        <time>2021-01-06T12:06:33Z</time>
      </trkpt>
      <trkpt lat="43.82656" lon="6.95198">
        <ele>1423.85</ele>
        <time>2021-01-06T12:06:44Z</time>
      </trkpt>
      <trkpt lat="43.82638" lon="6.95201">
        <ele>1424.33</ele>
        <time>2021-01-06T12:06:52Z</time>
      </trkpt>
      <trkpt lat="43.82632" lon="6.95201">
        <ele>1424.33</ele>
        <time>2021-01-06T12:06:55Z</time>
      </trkpt>
      <trkpt lat="43.82609" lon="6.95196">
        <ele>1423.85</ele>
        <time>2021-01-06T12:07:06Z</time>
      </trkpt>
      <trkpt lat="43.82597" lon="6.9517">
        <ele>1420.49</ele>
        <time>2021-01-06T12:07:13Z</time>
      </trkpt>
      <trkpt lat="43.82595" lon="6.95165">
        <ele>1420.49</ele>
        <time>2021-01-06T12:07:14Z</time>
      </trkpt>
      <trkpt lat="43.82582" lon="6.95142">
        <ele>1420.49</ele>
        <time>2021-01-06T12:07:21Z</time>
      </trkpt>
      <trkpt lat="43.82581" lon="6.95137">
        <ele>1421.93</ele>
        <time>2021-01-06T12:07:23Z</time>
      </trkpt>
      <trkpt lat="43.82579" lon="6.95133">
        <ele>1421.93</ele>
        <time>2021-01-06T12:07:25Z</time>
      </trkpt>
      <trkpt lat="43.82575" lon="6.95129">
        <ele>1421.93</ele>
        <time>2021-01-06T12:07:29Z</time>
      </trkpt>
      <trkpt lat="43.82559" lon="6.95108">
        <ele>1422.89</ele>
        <time>2021-01-06T12:07:42Z</time>
      </trkpt>
      <trkpt lat="43.82551" lon="6.951">
        <ele>1424.33</ele>
        <time>2021-01-06T12:07:48Z</time>
      </trkpt>
      <trkpt lat="43.82547" lon="6.95097">
        <ele>1424.33</ele>
        <time>2021-01-06T12:07:50Z</time>
      </trkpt>
      <trkpt lat="43.82537" lon="6.95085">
        <ele>1425.29</ele>
        <time>2021-01-06T12:07:59Z</time>
      </trkpt>
      <trkpt lat="43.82529" lon="6.95075">
        <ele>1426.25</ele>
        <time>2021-01-06T12:08:07Z</time>
      </trkpt>
      <trkpt lat="43.82522" lon="6.95067">
        <ele>1427.21</ele>
        <time>2021-01-06T12:08:15Z</time>
      </trkpt>
      <trkpt lat="43.82519" lon="6.95065">
        <ele>1428.18</ele>
        <time>2021-01-06T12:08:18Z</time>
      </trkpt>
      <trkpt lat="43.82513" lon="6.95057">
        <ele>1429.62</ele>
        <time>2021-01-06T12:08:26Z</time>
      </trkpt>
      <trkpt lat="43.82512" lon="6.95055">
        <ele>1429.14</ele>
        <time>2021-01-06T12:08:28Z</time>
      </trkpt>
      <trkpt lat="43.82508" lon="6.95046">
        <ele>1430.58</ele>
        <time>2021-01-06T12:08:34Z</time>
      </trkpt>
      <trkpt lat="43.82502" lon="6.95038">
        <ele>1431.06</ele>
        <time>2021-01-06T12:08:41Z</time>
      </trkpt>
      <trkpt lat="43.82501" lon="6.95035">
        <ele>1431.54</ele>
        <time>2021-01-06T12:08:43Z</time>
      </trkpt>
      <trkpt lat="43.82502" lon="6.95019">
        <ele>1432.5</ele>
        <time>2021-01-06T12:08:52Z</time>
      </trkpt>
      <trkpt lat="43.82503" lon="6.95015">
        <ele>1433.46</ele>
        <time>2021-01-06T12:08:54Z</time>
      </trkpt>
      <trkpt lat="43.82502" lon="6.94988">
        <ele>1432.02</ele>
        <time>2021-01-06T12:09:06Z</time>
      </trkpt>
      <trkpt lat="43.82497" lon="6.94966">
        <ele>1429.62</ele>
        <time>2021-01-06T12:09:10Z</time>
      </trkpt>
      <trkpt lat="43.82493" lon="6.94927">
        <ele>1430.1</ele>
        <time>2021-01-06T12:09:19Z</time>
      </trkpt>
      <trkpt lat="43.82495" lon="6.94912">
        <ele>1430.1</ele>
        <time>2021-01-06T12:09:25Z</time>
      </trkpt>
      <trkpt lat="43.82526" lon="6.94889">
        <ele>1426.73</ele>
        <time>2021-01-06T12:09:36Z</time>
      </trkpt>
      <trkpt lat="43.82531" lon="6.94887">
        <ele>1426.73</ele>
        <time>2021-01-06T12:09:37Z</time>
      </trkpt>
      <trkpt lat="43.82582" lon="6.94876">
        <ele>1424.81</ele>
        <time>2021-01-06T12:09:51Z</time>
      </trkpt>
      <trkpt lat="43.8261" lon="6.94884">
        <ele>1420.97</ele>
        <time>2021-01-06T12:09:57Z</time>
      </trkpt>
      <trkpt lat="43.82616" lon="6.94886">
        <ele>1420.97</ele>
        <time>2021-01-06T12:09:58Z</time>
      </trkpt>
      <trkpt lat="43.8266" lon="6.9489">
        <ele>1419.04</ele>
        <time>2021-01-06T12:10:08Z</time>
      </trkpt>
      <trkpt lat="43.82665" lon="6.9489">
        <ele>1418.08</ele>
        <time>2021-01-06T12:10:09Z</time>
      </trkpt>
      <trkpt lat="43.82713" lon="6.94872">
        <ele>1416.64</ele>
        <time>2021-01-06T12:10:21Z</time>
      </trkpt>
      <trkpt lat="43.82718" lon="6.94871">
        <ele>1418.56</ele>
        <time>2021-01-06T12:10:23Z</time>
      </trkpt>
      <trkpt lat="43.82724" lon="6.9487">
        <ele>1418.56</ele>
        <time>2021-01-06T12:10:25Z</time>
      </trkpt>
      <trkpt lat="43.82765" lon="6.94881">
        <ele>1415.68</ele>
        <time>2021-01-06T12:10:38Z</time>
      </trkpt>
      <trkpt lat="43.82808" lon="6.94891">
        <ele>1412.31</ele>
        <time>2021-01-06T12:10:48Z</time>
      </trkpt>
      <trkpt lat="43.82842" lon="6.94909">
        <ele>1412.31</ele>
        <time>2021-01-06T12:11:00Z</time>
      </trkpt>
      <trkpt lat="43.82855" lon="6.94907">
        <ele>1410.87</ele>
        <time>2021-01-06T12:11:03Z</time>
      </trkpt>
      <trkpt lat="43.82859" lon="6.94905">
        <ele>1410.39</ele>
        <time>2021-01-06T12:11:04Z</time>
      </trkpt>
      <trkpt lat="43.82879" lon="6.94886">
        <ele>1407.99</ele>
        <time>2021-01-06T12:11:09Z</time>
      </trkpt>
      <trkpt lat="43.82901" lon="6.9485">
        <ele>1404.62</ele>
        <time>2021-01-06T12:11:15Z</time>
      </trkpt>
      <trkpt lat="43.82913" lon="6.9483">
        <ele>1402.7</ele>
        <time>2021-01-06T12:11:18Z</time>
      </trkpt>
      <trkpt lat="43.82917" lon="6.94824">
        <ele>1401.74</ele>
        <time>2021-01-06T12:11:19Z</time>
      </trkpt>
      <trkpt lat="43.82927" lon="6.94814">
        <ele>1401.26</ele>
        <time>2021-01-06T12:11:21Z</time>
      </trkpt>
      <trkpt lat="43.82946" lon="6.94806">
        <ele>1399.82</ele>
        <time>2021-01-06T12:11:24Z</time>
      </trkpt>
      <trkpt lat="43.82952" lon="6.94805">
        <ele>1398.37</ele>
        <time>2021-01-06T12:11:25Z</time>
      </trkpt>
      <trkpt lat="43.82958" lon="6.94806">
        <ele>1398.37</ele>
        <time>2021-01-06T12:11:26Z</time>
      </trkpt>
      <trkpt lat="43.82964" lon="6.94808">
        <ele>1398.37</ele>
        <time>2021-01-06T12:11:27Z</time>
      </trkpt>
      <trkpt lat="43.8297" lon="6.9481">
        <ele>1398.37</ele>
        <time>2021-01-06T12:11:28Z</time>
      </trkpt>
      <trkpt lat="43.82975" lon="6.94814">
        <ele>1398.37</ele>
        <time>2021-01-06T12:11:29Z</time>
      </trkpt>
      <trkpt lat="43.8298" lon="6.94818">
        <ele>1397.41</ele>
        <time>2021-01-06T12:11:30Z</time>
      </trkpt>
      <trkpt lat="43.82994" lon="6.94833">
        <ele>1396.93</ele>
        <time>2021-01-06T12:11:33Z</time>
      </trkpt>
      <trkpt lat="43.82997" lon="6.94838">
        <ele>1396.45</ele>
        <time>2021-01-06T12:11:34Z</time>
      </trkpt>
      <trkpt lat="43.83025" lon="6.94887">
        <ele>1395.49</ele>
        <time>2021-01-06T12:11:44Z</time>
      </trkpt>
      <trkpt lat="43.83036" lon="6.94902">
        <ele>1395.49</ele>
        <time>2021-01-06T12:11:49Z</time>
      </trkpt>
      <trkpt lat="43.83043" lon="6.94913">
        <ele>1396.93</ele>
        <time>2021-01-06T12:11:53Z</time>
      </trkpt>
      <trkpt lat="43.83052" lon="6.94931">
        <ele>1396.93</ele>
        <time>2021-01-06T12:11:59Z</time>
      </trkpt>
      <trkpt lat="43.83057" lon="6.9494">
        <ele>1396.93</ele>
        <time>2021-01-06T12:12:02Z</time>
      </trkpt>
      <trkpt lat="43.8307" lon="6.94962">
        <ele>1397.41</ele>
        <time>2021-01-06T12:12:10Z</time>
      </trkpt>
      <trkpt lat="43.83083" lon="6.94981">
        <ele>1397.89</ele>
        <time>2021-01-06T12:12:18Z</time>
      </trkpt>
      <trkpt lat="43.83087" lon="6.94985">
        <ele>1397.89</ele>
        <time>2021-01-06T12:12:20Z</time>
      </trkpt>
      <trkpt lat="43.83109" lon="6.95002">
        <ele>1398.37</ele>
        <time>2021-01-06T12:12:31Z</time>
      </trkpt>
      <trkpt lat="43.83122" lon="6.95023">
        <ele>1399.34</ele>
        <time>2021-01-06T12:12:40Z</time>
      </trkpt>
      <trkpt lat="43.83125" lon="6.95046">
        <ele>1399.34</ele>
        <time>2021-01-06T12:12:48Z</time>
      </trkpt>
      <trkpt lat="43.83125" lon="6.95075">
        <ele>1399.82</ele>
        <time>2021-01-06T12:12:58Z</time>
      </trkpt>
      <trkpt lat="43.83126" lon="6.95079">
        <ele>1400.78</ele>
        <time>2021-01-06T12:13:00Z</time>
      </trkpt>
      <trkpt lat="43.83127" lon="6.95108">
        <ele>1402.22</ele>
        <time>2021-01-06T12:13:12Z</time>
      </trkpt>
      <trkpt lat="43.83132" lon="6.95128">
        <ele>1404.14</ele>
        <time>2021-01-06T12:13:20Z</time>
      </trkpt>
      <trkpt lat="43.83133" lon="6.9513">
        <ele>1404.14</ele>
        <time>2021-01-06T12:13:21Z</time>
      </trkpt>
      <trkpt lat="43.83145" lon="6.95162">
        <ele>1405.1</ele>
        <time>2021-01-06T12:13:34Z</time>
      </trkpt>
    </trkseg>
  </trk>
</gpx>